createdAt,value
2018-08-17T00:00:31.155Z,22.58
2018-08-17T00:05:24.251Z,22.59
2018-08-17T00:10:17.396Z,22.68
2018-08-17T00:15:10.455Z,22.63
2018-08-17T00:20:03.611Z,22.60
2018-08-17T00:24:56.643Z,22.73
2018-08-17T00:29:49.789Z,22.68
2018-08-17T00:34:42.777Z,22.58
2018-08-17T00:39:35.734Z,22.67
2018-08-17T00:44:28.841Z,22.60
2018-08-17T00:49:21.839Z,22.50
2018-08-17T00:54:14.899Z,22.69
2018-08-17T00:59:07.958Z,22.60
2018-08-17T01:04:01.042Z,23.34
2018-08-17T01:08:54.071Z,23.25
2018-08-17T01:13:47.371Z,24.11
2018-08-17T01:18:40.409Z,25.14
2018-08-17T01:23:33.584Z,26.24
2018-08-17T01:28:26.709Z,26.37
2018-08-17T01:33:19.822Z,26.32
2018-08-17T01:38:12.839Z,26.27
2018-08-17T01:43:06.110Z,26.47
2018-08-17T01:47:59.093Z,26.48
2018-08-17T01:52:52.799Z,26.51
2018-08-17T01:57:45.803Z,26.80
2018-08-17T02:02:40.575Z,26.71
2018-08-17T02:07:33.864Z,26.60
2018-08-17T02:12:27.221Z,26.47
2018-08-17T02:17:20.335Z,26.60
2018-08-17T02:22:13.403Z,26.61
2018-08-17T02:27:06.561Z,26.60
2018-08-17T02:31:59.593Z,26.83
2018-08-17T02:36:52.624Z,26.84
2018-08-17T02:41:45.707Z,26.93
2018-08-17T02:46:38.791Z,26.91
2018-08-17T02:51:31.716Z,26.89
2018-08-17T02:56:24.654Z,26.97
2018-08-17T03:01:17.678Z,26.94
2018-08-17T03:06:10.729Z,26.92
2018-08-17T03:11:03.939Z,26.79
2018-08-17T03:15:56.963Z,26.63
2018-08-17T03:20:50.106Z,26.86
2018-08-17T03:25:43.398Z,26.57
2018-08-17T03:30:36.524Z,26.71
2018-08-17T03:35:29.650Z,26.55
2018-08-17T03:40:22.630Z,26.75
2018-08-17T03:45:15.641Z,26.75
2018-08-17T03:50:08.751Z,26.94
2018-08-17T03:55:01.976Z,26.87
2018-08-17T03:59:55.068Z,26.59
2018-08-17T04:04:48.097Z,26.49
2018-08-17T04:09:41.217Z,26.77
2018-08-17T04:14:34.229Z,26.89
2018-08-17T04:19:27.290Z,27.04
2018-08-17T04:24:20.414Z,26.94
2018-08-17T04:29:13.635Z,26.92
2018-08-17T04:34:06.745Z,26.82
2018-08-17T04:38:59.766Z,26.88
2018-08-17T04:43:53.094Z,26.90
2018-08-17T04:48:46.045Z,27.00
2018-08-17T04:53:39.045Z,26.94
2018-08-17T04:58:32.131Z,27.02
2018-08-17T05:03:25.102Z,27.19
2018-08-17T05:08:18.311Z,27.06
2018-08-17T05:13:11.277Z,26.91
2018-08-17T05:18:04.326Z,26.91
2018-08-17T05:22:57.463Z,26.81
2018-08-17T05:27:50.612Z,26.89
2018-08-17T05:32:43.582Z,26.78
2018-08-17T05:37:36.523Z,26.95
2018-08-17T05:42:29.639Z,26.93
2018-08-17T05:47:22.825Z,26.85
2018-08-17T05:52:15.838Z,26.86
2018-08-17T05:57:08.863Z,26.90
2018-08-17T06:02:02.251Z,26.93
2018-08-17T06:06:55.434Z,26.94
2018-08-17T06:11:48.616Z,26.92
2018-08-17T06:16:42.662Z,26.86
2018-08-17T06:21:35.694Z,26.84
2018-08-17T06:26:28.590Z,26.96
2018-08-17T06:31:22.073Z,27.01
2018-08-17T06:36:15.149Z,27.11
2018-08-17T06:41:08.902Z,27.13
2018-08-17T06:46:01.955Z,27.09
2018-08-17T06:50:55.023Z,27.25
2018-08-17T06:55:47.982Z,27.41
2018-08-17T07:00:41.754Z,27.43
2018-08-17T07:05:34.825Z,27.48
2018-08-17T07:10:27.973Z,27.71
2018-08-17T07:15:21.160Z,27.85
2018-08-17T07:20:14.187Z,28.01
2018-08-17T07:25:07.476Z,28.02
2018-08-17T07:30:00.883Z,27.98
2018-08-17T07:34:53.940Z,28.03
2018-08-17T07:39:48.302Z,28.08
2018-08-17T07:44:41.915Z,28.15
2018-08-17T07:49:35.258Z,28.34
2018-08-17T07:54:28.361Z,28.34
2018-08-17T07:59:21.455Z,28.35
2018-08-17T08:04:14.429Z,28.49
2018-08-17T08:09:09.839Z,28.53
2018-08-17T08:14:06.694Z,28.78
2018-08-17T08:19:03.231Z,29.05
2018-08-17T08:23:56.793Z,29.32
2018-08-17T08:28:49.791Z,29.39
2018-08-17T08:33:46.345Z,29.62
2018-08-17T08:38:39.365Z,29.76
2018-08-17T08:43:32.531Z,29.79
2018-08-17T08:48:25.619Z,29.78
2018-08-17T08:53:19.566Z,29.74
2018-08-17T08:58:12.990Z,29.84
2018-08-17T09:03:07.554Z,30.00
2018-08-17T09:08:02.000Z,30.28
2018-08-17T09:12:55.006Z,30.12
2018-08-17T09:17:48.106Z,30.03
2018-08-17T09:22:41.660Z,30.24
2018-08-17T09:27:35.562Z,30.21
2018-08-17T09:32:30.545Z,30.16
2018-08-17T09:37:25.732Z,30.18
2018-08-17T09:42:18.774Z,30.28
2018-08-17T09:47:11.732Z,30.64
2018-08-17T09:52:05.096Z,30.27
2018-08-17T09:56:58.646Z,30.24
2018-08-17T10:01:57.323Z,30.35
2018-08-17T10:06:56.563Z,30.05
2018-08-17T10:11:50.947Z,29.99
2018-08-17T10:16:44.127Z,30.52
2018-08-17T10:21:56.175Z,30.78
2018-08-17T10:26:49.729Z,30.41
2018-08-17T10:31:43.311Z,29.99
2018-08-17T10:36:36.456Z,30.15
2018-08-17T10:41:29.701Z,30.54
2018-08-17T10:46:22.756Z,30.66
2018-08-17T10:51:15.701Z,30.63
2018-08-17T10:56:08.746Z,30.42
2018-08-17T11:01:01.896Z,30.66
2018-08-17T11:05:54.855Z,30.96
2018-08-17T11:10:47.953Z,30.95
2018-08-17T11:15:40.900Z,30.45
2018-08-17T11:20:33.960Z,30.50
2018-08-17T11:25:27.040Z,30.50
2018-08-17T11:30:20.260Z,30.29
2018-08-17T11:35:13.278Z,30.26
2018-08-17T11:40:07.854Z,30.48
2018-08-17T11:45:01.355Z,30.48
2018-08-17T11:49:54.503Z,30.23
2018-08-17T11:54:47.488Z,30.38
2018-08-17T12:00:00.445Z,30.56
2018-08-17T12:04:53.446Z,30.49
2018-08-17T12:09:51.889Z,30.13
2018-08-17T12:14:47.225Z,30.37
2018-08-17T12:19:40.246Z,30.56
2018-08-17T12:24:33.256Z,30.57
2018-08-17T12:29:26.556Z,30.43
2018-08-17T12:34:19.556Z,30.30
2018-08-17T12:39:12.586Z,30.18
2018-08-17T12:44:06.039Z,30.14
2018-08-17T12:48:59.067Z,30.64
2018-08-17T12:53:52.128Z,30.51
2018-08-17T12:58:45.154Z,30.64
2018-08-17T13:03:38.189Z,30.54
2018-08-17T13:08:31.094Z,30.63
2018-08-17T13:13:24.045Z,28.79
2018-08-17T13:18:22.824Z,28.48
2018-08-17T13:23:15.932Z,28.12
2018-08-17T13:28:09.013Z,28.35
2018-08-17T13:33:02.025Z,28.98
2018-08-17T13:37:55.173Z,29.09
2018-08-17T13:42:48.294Z,28.80
2018-08-17T13:47:41.331Z,28.11
2018-08-17T13:52:34.410Z,28.24
2018-08-17T13:57:27.682Z,28.61
2018-08-17T14:02:20.721Z,29.00
2018-08-17T14:07:13.804Z,28.96
2018-08-17T14:12:07.896Z,28.33
2018-08-17T14:17:01.139Z,27.93
2018-08-17T14:21:54.062Z,27.73
2018-08-17T14:26:47.255Z,27.66
2018-08-17T14:31:40.348Z,27.39
2018-08-17T14:36:33.358Z,27.28
2018-08-17T14:41:26.354Z,27.22
2018-08-17T14:46:23.706Z,26.84
2018-08-17T14:51:16.732Z,26.92
2018-08-17T14:56:09.628Z,27.20
2018-08-17T15:01:02.735Z,27.41
2018-08-17T15:05:55.740Z,27.40
2018-08-17T15:10:48.860Z,26.93
2018-08-17T15:15:41.926Z,26.22
2018-08-17T15:20:36.584Z,25.93
2018-08-17T15:25:29.649Z,25.89
2018-08-17T15:30:22.660Z,25.99
2018-08-17T15:35:15.660Z,26.17
2018-08-17T15:40:10.747Z,26.55
2018-08-17T15:45:04.571Z,26.63
2018-08-17T15:50:28.670Z,26.62
2018-08-17T15:55:21.900Z,26.77
2018-08-17T16:00:19.934Z,26.76
2018-08-17T16:05:12.973Z,26.53
2018-08-17T16:10:07.547Z,26.37
2018-08-17T16:15:00.738Z,26.13
2018-08-17T16:19:54.138Z,25.97
2018-08-17T16:24:47.218Z,25.70
2018-08-17T16:29:40.221Z,25.28
2018-08-17T16:34:33.269Z,25.09
2018-08-17T16:39:26.395Z,25.13
2018-08-17T16:44:19.468Z,25.49
2018-08-17T16:49:12.513Z,25.56
2018-08-17T16:54:05.814Z,25.54
2018-08-17T16:58:58.911Z,25.71
2018-08-17T17:03:52.139Z,25.52
2018-08-17T17:08:45.029Z,25.46
2018-08-17T17:13:39.777Z,25.45
2018-08-17T17:18:32.823Z,25.22
2018-08-17T17:23:25.893Z,25.03
2018-08-17T17:28:18.915Z,25.40
2018-08-17T17:33:12.140Z,25.86
2018-08-17T17:38:07.731Z,25.82
2018-08-17T17:43:01.006Z,25.50
2018-08-17T17:47:54.072Z,25.10
2018-08-17T17:52:47.160Z,25.12
2018-08-17T17:57:40.179Z,25.06
2018-08-17T18:02:33.761Z,24.91
2018-08-17T18:07:50.363Z,24.71
2018-08-17T18:12:43.423Z,24.80
2018-08-17T18:17:36.462Z,24.73
2018-08-17T18:22:32.049Z,24.66
2018-08-17T18:27:26.792Z,24.70
2018-08-17T18:32:19.863Z,24.50
2018-08-17T18:37:12.954Z,25.04
2018-08-17T18:42:06.300Z,24.65
2018-08-17T18:46:59.494Z,24.09
2018-08-17T18:51:53.794Z,23.96
2018-08-17T18:57:02.816Z,24.66
2018-08-17T19:01:56.023Z,24.57
2018-08-17T19:08:07.661Z,24.30
2018-08-17T19:13:00.904Z,23.97
2018-08-17T19:17:54.077Z,23.80
2018-08-17T19:22:47.176Z,23.87
2018-08-17T19:27:40.871Z,23.88
2018-08-17T19:32:33.989Z,23.85
2018-08-17T19:37:26.933Z,23.95
2018-08-17T19:42:19.873Z,24.02
2018-08-17T19:47:12.860Z,23.95
2018-08-17T19:52:06.233Z,23.57
2018-08-17T19:56:59.319Z,23.60
2018-08-17T20:01:52.418Z,23.73
2018-08-17T20:06:45.752Z,23.67
2018-08-17T20:11:38.744Z,23.52
2018-08-17T20:16:31.780Z,23.55
2018-08-17T20:21:25.637Z,23.71
2018-08-17T20:26:19.050Z,23.69
2018-08-17T20:31:11.784Z,23.78
2018-08-17T20:36:04.869Z,23.83
2018-08-17T20:40:59.688Z,23.76
2018-08-17T20:45:52.655Z,23.87
2018-08-17T20:50:45.658Z,23.81
2018-08-17T20:55:38.616Z,23.72
2018-08-17T21:00:31.733Z,23.69
2018-08-17T21:05:24.840Z,23.58
2018-08-17T21:10:17.955Z,23.58
2018-08-17T21:15:10.933Z,23.82
2018-08-17T21:20:04.752Z,23.75
2018-08-17T21:24:57.813Z,23.50
2018-08-17T21:29:50.922Z,23.52
2018-08-17T21:34:43.841Z,23.61
2018-08-17T21:39:37.946Z,24.28
2018-08-17T21:44:30.935Z,24.91
2018-08-17T21:49:25.276Z,25.09
2018-08-17T21:54:18.772Z,25.17
2018-08-17T21:59:11.829Z,25.00
2018-08-17T22:04:04.864Z,25.12
2018-08-17T22:08:57.912Z,25.32
2018-08-17T22:13:51.023Z,25.20
2018-08-17T22:18:44.063Z,25.30
2018-08-17T22:23:37.039Z,25.15
2018-08-17T22:28:30.097Z,25.01
2018-08-17T22:33:23.202Z,24.78
2018-08-17T22:38:16.235Z,24.83
2018-08-17T22:43:09.158Z,24.74
2018-08-17T22:48:02.123Z,24.16
2018-08-17T22:52:55.210Z,23.60
2018-08-17T22:57:48.155Z,23.59
2018-08-17T23:02:42.265Z,23.56
2018-08-17T23:07:35.298Z,23.54
2018-08-17T23:12:28.367Z,23.72
2018-08-17T23:17:21.502Z,23.64
2018-08-17T23:22:14.767Z,23.67
2018-08-17T23:27:07.702Z,23.53
2018-08-17T23:32:00.894Z,23.84
2018-08-17T23:36:53.907Z,23.58
2018-08-17T23:41:47.924Z,23.52
2018-08-17T23:46:40.954Z,23.68
2018-08-17T23:51:33.952Z,23.81
2018-08-17T23:56:27.026Z,23.78
